.
WxDataArchive / Data Records for 2011-01-28
2011-01-27 January 2011 2011-01-29

Data Records for Friday, 28 January 2011

Time	Temp	Chill	HIndex	Humid	Dewpt	 Wind 	HiWind	WindDir	Rain 	Barom 
-----	----	-----	------	-----	-----	------	------	-------	-----	----- 
00:00	26.3	26.3	26.3	92	24.3	1	2	248	0.00	29.800 
00:05	26.3	26.3	26.3	92	24.3	0	2	248	0.00	29.800 
00:10	26.1	26.1	26.1	92	24.1	0	1	248	0.00	29.800 
00:15	26.1	26.1	26.1	92	24.1	0	2	248	0.00	29.798 
00:20	26.1	26.1	26.1	91	23.8	0	3	248	0.00	29.798 
00:25	26.0	26.0	26.0	91	23.7	1	2	248	0.00	29.798 
00:30	26.0	26.0	26.0	91	23.7	0	2	315	0.00	29.798 
00:35	26.0	26.0	26.0	91	23.7	0	3	270	0.00	29.798 
00:40	26.0	26.0	26.0	90	23.5	0	2	270	0.00	29.798 
00:45	25.8	25.8	25.8	90	23.3	0	2	270	0.00	29.798 
00:50	25.8	25.8	25.8	90	23.3	0	1	270	0.00	29.798 
00:55	25.8	25.8	25.8	90	23.3	0	3	338	0.00	29.798 
01:00	25.7	25.7	25.7	90	23.2	0	2	338	0.00	29.799 
01:05	25.7	25.7	25.7	89	22.9	0	1	338	0.00	29.799 
01:10	25.7	25.7	25.7	89	22.9	0	2	338	0.00	29.799 
01:15	25.7	25.7	25.7	89	22.9	0	1	338	0.00	29.795 
01:20	25.6	25.6	25.6	89	22.8	0	2	338	0.00	29.795 
01:25	25.6	25.6	25.6	89	22.8	0	1	338	0.00	29.795 
01:30	25.6	25.6	25.6	89	22.8	0	1	338	0.00	29.791 
01:35	25.6	25.6	25.6	89	22.8	0	2	338	0.00	29.791 
01:40	25.6	25.6	25.6	89	22.8	0	1	338	0.00	29.791 
01:45	25.6	25.6	25.6	89	22.8	0	1	338	0.00	29.795 
01:50	25.6	25.6	25.6	89	22.8	0	1	338	0.00	29.795 
01:55	25.4	25.4	25.4	89	22.6	0	2	338	0.00	29.795 
02:00	25.4	25.4	25.4	89	22.6	0	2	338	0.00	29.795 
02:05	25.4	25.4	25.4	89	22.6	0	1	338	0.00	29.795 
02:10	25.4	25.4	25.4	89	22.6	0	1	338	0.00	29.795 
02:15	25.4	25.4	25.4	89	22.6	0	2	338	0.00	29.797 
02:20	25.4	25.4	25.4	89	22.6	0	2	338	0.00	29.797 
02:25	25.4	25.4	25.4	89	22.6	0	1	338	0.00	29.797 
02:30	25.4	25.4	25.4	89	22.6	0	2	338	0.00	29.799 
02:35	25.4	25.4	25.4	89	22.6	1	3	270	0.00	29.799 
02:40	25.4	25.4	25.4	89	22.6	0	1	270	0.00	29.799 
02:45	25.4	25.4	25.4	89	22.6	0	1	270	0.00	29.801 
02:50	25.4	25.4	25.4	89	22.6	0	1	270	0.00	29.801 
02:55	25.4	25.4	25.4	89	22.6	0	1	270	0.00	29.801 
03:00	25.4	25.4	25.4	89	22.6	0	1	270	0.00	29.802 
03:05	25.4	25.4	25.4	89	22.6	0	2	270	0.00	29.802 
03:10	25.3	25.3	25.3	89	22.5	0	1	270	0.00	29.802 
03:15	25.3	25.3	25.3	89	22.5	0	1	270	0.00	29.800 
03:20	25.3	25.3	25.3	90	22.8	0	2	270	0.00	29.800 
03:25	25.3	25.3	25.3	90	22.8	0	1	270	0.00	29.800 
03:30	25.3	25.3	25.3	90	22.8	0	2	270	0.00	29.802 
03:35	25.3	25.3	25.3	90	22.8	0	2	270	0.00	29.802 
03:40	25.3	25.3	25.3	90	22.8	0	3	338	0.00	29.802 
03:45	25.3	25.3	25.3	90	22.8	0	2	338	0.00	29.800 
03:50	25.3	25.3	25.3	90	22.8	0	3	225	0.00	29.800 
03:55	25.3	25.3	25.3	90	22.8	0	3	225	0.00	29.800 
04:00	25.3	25.3	25.3	90	22.8	0	2	292	0.00	29.801 
04:05	25.3	25.3	25.3	90	22.8	0	1	292	0.00	29.801 
04:10	25.3	25.3	25.3	90	22.8	0	1	292	0.00	29.801 
04:15	25.3	25.3	25.3	90	22.8	0	2	292	0.00	29.804 
04:20	25.3	25.3	25.3	90	22.8	0	2	292	0.00	29.804 
04:25	25.3	25.3	25.3	90	22.8	0	1	292	0.00	29.804 
04:30	25.3	25.3	25.3	90	22.8	0	1	292	0.00	29.807 
04:35	25.3	25.3	25.3	90	22.8	0	1	292	0.00	29.807 
04:40	25.3	25.3	25.3	90	22.8	0	1	292	0.00	29.807 
04:45	25.3	25.3	25.3	90	22.8	0	2	292	0.00	29.808 
04:50	25.3	25.3	25.3	90	22.8	0	2	292	0.00	29.808 
04:55	25.4	25.4	25.4	90	22.9	0	2	292	0.00	29.808 
05:00	25.4	25.4	25.4	90	22.9	0	2	292	0.00	29.811 
05:05	25.4	25.4	25.4	90	22.9	0	2	292	0.00	29.811 
05:10	25.4	25.4	25.4	90	22.9	0	1	292	0.00	29.811 
05:15	25.4	25.4	25.4	90	22.9	0	2	292	0.00	29.816 
05:20	25.4	25.4	25.4	90	22.9	1	2	292	0.00	29.816 
05:25	25.4	25.4	25.4	90	22.9	0	2	292	0.00	29.816 
05:30	25.4	25.4	25.4	90	22.9	0	2	292	0.00	29.819 
05:35	25.4	25.4	25.4	90	22.9	0	1	292	0.00	29.819 
05:40	25.4	25.4	25.4	90	22.9	0	2	292	0.00	29.819 
05:45	25.4	25.4	25.4	90	22.9	0	1	292	0.00	29.826 
05:50	25.4	25.4	25.4	90	22.9	0	1	292	0.00	29.826 
05:55	25.4	25.4	25.4	90	22.9	1	2	292	0.00	29.826 
06:00	25.4	25.4	25.4	90	22.9	1	2	292	0.00	29.833 
06:05	25.4	25.4	25.4	90	22.9	1	2	292	0.00	29.833 
06:10	25.4	25.4	25.4	90	22.9	0	1	292	0.00	29.833 
06:15	25.4	25.4	25.4	90	22.9	0	2	292	0.00	29.839 
06:20	25.4	25.4	25.4	90	22.9	1	2	292	0.00	29.839 
06:25	25.4	25.4	25.4	90	22.9	1	2	292	0.00	29.839 
06:30	25.4	25.4	25.4	90	22.9	1	3	270	0.00	29.847 
06:35	25.4	25.4	25.4	90	22.9	1	2	270	0.00	29.847 
06:40	25.4	25.4	25.4	90	22.9	1	2	270	0.00	29.847 
06:45	25.4	25.4	25.4	90	22.9	1	3	270	0.00	29.850 
06:50	25.4	25.4	25.4	90	22.9	1	3	270	0.00	29.850 
06:55	25.4	25.4	25.4	90	22.9	0	2	270	0.00	29.850 
07:00	25.4	25.4	25.4	90	22.9	0	2	270	0.00	29.857 
07:05	25.4	25.4	25.4	90	22.9	0	1	270	0.00	29.857 
07:10	25.4	25.4	25.4	90	22.9	1	2	270	0.00	29.857 
07:15	25.4	25.4	25.4	90	22.9	1	3	270	0.00	29.864 
07:20	25.4	25.4	25.4	90	22.9	1	2	270	0.00	29.864 
07:25	25.3	25.3	25.3	90	22.8	0	1	270	0.00	29.864 
07:30	25.3	25.3	25.3	90	22.8	1	3	270	0.00	29.866 
07:35	25.3	25.3	25.3	90	22.8	1	2	270	0.00	29.866 
07:40	25.3	25.3	25.3	90	22.8	1	2	270	0.00	29.866 
07:45	25.3	25.3	25.3	90	22.8	1	2	270	0.00	29.877 
07:50	25.3	25.3	25.3	90	22.8	0	2	270	0.00	29.877 
07:55	25.3	25.3	25.3	90	22.8	1	2	270	0.00	29.877 
08:00	25.4	25.4	25.4	90	22.9	1	3	270	0.00	29.880 
08:05	25.4	25.4	25.4	89	22.6	1	2	270	0.00	29.880 
08:10	25.4	25.4	25.4	89	22.6	1	2	270	0.00	29.880 
08:15	25.4	25.4	25.4	89	22.6	1	2	270	0.00	29.882 
08:20	25.3	25.3	25.3	89	22.5	1	2	270	0.00	29.882 
08:25	25.3	25.3	25.3	89	22.5	0	2	270	0.00	29.882 
08:30	25.4	25.4	25.4	89	22.6	0	1	270	0.00	29.893 
08:35	25.4	25.4	25.4	89	22.6	1	3	270	0.00	29.893 
08:40	25.4	25.4	25.4	89	22.6	0	3	270	0.00	29.893 
08:45	25.4	25.4	25.4	89	22.6	1	2	270	0.00	29.895 
08:50	25.4	25.4	25.4	89	22.6	1	2	270	0.00	29.895 
08:55	25.4	25.4	25.4	89	22.6	0	1	270	0.00	29.895 
09:00	25.6	25.6	25.6	89	22.8	0	2	270	0.00	29.893 
09:05	25.6	25.6	25.6	89	22.8	0	2	270	0.00	29.893 
09:10	25.6	25.6	25.6	89	22.8	0	2	270	0.00	29.893 
09:15	25.7	25.7	25.7	89	22.9	0	2	270	0.00	29.893 
09:20	25.6	25.6	25.6	89	22.8	1	2	270	0.00	29.893 
09:25	25.7	25.7	25.7	89	22.9	0	1	270	0.00	29.893 
09:30	25.7	25.7	25.7	88	22.6	1	2	270	0.00	29.895 
09:35	25.8	25.8	25.8	88	22.7	0	2	270	0.00	29.895 
09:40	26.0	26.0	26.0	88	22.9	0	2	270	0.00	29.895 
09:45	26.0	26.0	26.0	88	22.9	0	2	270	0.00	29.896 
09:50	26.1	26.1	26.1	88	23.0	0	1	270	0.00	29.896 
09:55	26.3	26.3	26.3	88	23.2	0	1	270	0.00	29.896 
10:00	26.3	26.3	26.3	88	23.2	1	2	270	0.00	29.898 
10:05	26.3	26.3	26.3	88	23.2	1	2	270	0.00	29.898 
10:10	26.4	26.4	26.4	88	23.3	1	3	270	0.00	29.898 
10:15	26.4	26.4	26.4	88	23.3	1	3	270	0.00	29.903 
10:20	26.6	26.6	26.6	87	23.3	1	2	270	0.00	29.903 
10:25	26.7	26.7	26.7	87	23.4	1	3	248	0.00	29.903 
10:30	26.9	26.9	26.9	87	23.6	1	2	248	0.00	29.908 
10:35	26.7	26.7	26.7	87	23.4	1	4	248	0.00	29.908 
10:40	26.9	26.9	26.9	87	23.6	1	3	248	0.00	29.908 
10:45	26.9	26.9	26.9	86	23.3	1	3	248	0.00	29.911 
10:50	27.0	27.0	27.0	86	23.4	0	2	248	0.00	29.911 
10:55	27.2	27.2	27.2	86	23.6	1	3	248	0.00	29.911 
11:00	27.5	27.5	27.5	86	23.9	1	3	248	0.00	29.908 
11:05	27.6	27.6	27.6	86	24.0	0	2	248	0.00	29.908 
11:10	27.6	27.6	27.6	84	23.4	1	3	248	0.00	29.908 
11:15	27.6	27.6	27.6	84	23.4	1	3	248	0.00	29.914 
11:20	27.9	27.9	27.9	84	23.7	1	3	248	0.00	29.914 
11:25	27.9	27.9	27.9	80	22.5	2	5	248	0.00	29.914 
11:30	28.1	28.1	28.1	83	23.6	2	4	248	0.00	29.923 
11:35	28.1	28.1	28.1	82	23.3	2	4	270	0.00	29.923 
11:40	28.1	28.1	28.1	82	23.3	2	3	248	0.00	29.923 
11:45	28.1	28.1	28.1	81	23.0	2	4	270	0.00	29.927 
11:50	28.2	28.2	28.2	82	23.4	2	4	248	0.00	29.927 
11:55	28.5	28.5	28.5	81	23.4	2	4	270	0.00	29.927 
12:00	28.7	28.7	28.7	81	23.6	2	4	270	0.00	29.926 
12:05	28.7	28.7	28.7	81	23.6	2	4	248	0.00	29.926 
12:10	29.0	29.0	29.0	81	23.9	1	2	292	0.00	29.926 
12:15	29.3	29.3	29.3	81	24.2	1	5	292	0.00	29.923 
12:20	29.7	29.7	29.7	80	24.3	1	4	248	0.00	29.923 
12:25	29.4	29.4	29.4	78	23.4	3	5	270	0.00	29.923 
12:30	29.3	29.3	29.3	78	23.3	2	4	270	0.00	29.921 
12:35	29.4	29.4	29.4	78	23.4	2	4	270	0.00	29.921 
12:40	29.4	29.4	29.4	78	23.4	2	5	270	0.00	29.921 
12:45	29.4	29.4	29.4	78	23.4	2	3	225	0.00	29.920 
12:50	29.4	29.4	29.4	79	23.7	2	4	270	0.00	29.920 
12:55	29.3	29.3	29.3	79	23.6	2	4	270	0.00	29.920 
13:00	29.1	29.1	29.1	79	23.4	2	4	270	0.00	29.921 
13:05	29.0	29.0	29.0	80	23.6	1	2	270	0.00	29.921 
13:10	29.0	29.0	29.0	80	23.6	1	3	270	0.00	29.921 
13:15	29.0	29.0	29.0	80	23.6	2	4	270	0.00	29.912 
13:20	28.8	28.8	28.8	80	23.4	1	3	225	0.00	29.912 
13:25	29.0	29.0	29.0	80	23.6	1	3	225	0.00	29.912 
13:30	29.1	29.1	29.1	80	23.7	1	4	225	0.00	29.912 
13:35	29.1	29.1	29.1	80	23.7	1	3	248	0.00	29.912 
13:40	29.3	29.3	29.3	80	23.9	2	7	225	0.00	29.912 
13:45	29.1	29.1	29.1	79	23.4	2	4	248	0.00	29.907 
13:50	29.0	29.0	29.0	79	23.3	3	6	248	0.00	29.907 
13:55	29.1	29.1	29.1	79	23.4	2	5	270	0.01	29.907 
14:00	29.1	29.1	29.1	78	23.1	3	5	270	0.00	29.908 
14:05	29.1	29.1	29.1	78	23.1	2	4	270	0.00	29.908 
14:10	29.5	29.5	29.5	77	23.2	2	4	270	0.00	29.908 
14:15	29.8	29.8	29.8	77	23.5	2	5	270	0.00	29.912 
14:20	29.8	29.8	29.8	76	23.2	3	5	270	0.00	29.912 
14:25	29.7	29.7	29.7	76	23.1	3	6	292	0.00	29.912 
14:30	30.0	30.0	30.0	76	23.4	2	6	270	0.00	29.913 
14:35	30.4	30.4	30.4	75	23.4	2	4	270	0.00	29.913 
14:40	30.6	30.6	30.6	75	23.6	2	4	248	0.01	29.913 
14:45	30.6	30.6	30.6	74	23.3	2	5	270	0.00	29.916 
14:50	30.4	30.4	30.4	74	23.1	2	4	270	0.00	29.916 
14:55	30.3	30.3	30.3	74	23.0	2	4	270	0.00	29.916 
15:00	30.3	30.3	30.3	74	23.0	2	4	270	0.00	29.919 
15:05	30.3	30.3	30.3	74	23.0	2	6	248	0.00	29.919 
15:10	30.4	30.4	30.4	75	23.4	2	3	270	0.00	29.919 
15:15	30.7	30.7	30.7	74	23.4	2	4	270	0.00	29.919 
15:20	30.6	30.6	30.6	74	23.3	2	5	248	0.00	29.919 
15:25	30.6	30.6	30.6	74	23.3	2	4	248	0.01	29.919 
15:30	30.4	30.4	30.4	73	22.8	2	4	248	0.00	29.923 
15:35	30.1	30.1	30.1	74	22.8	2	6	248	0.00	29.923 
15:40	30.0	30.0	30.0	74	22.7	2	4	248	0.00	29.923 
15:45	30.0	30.0	30.0	74	22.7	2	5	248	0.00	29.930 
15:50	29.7	29.7	29.7	74	22.4	2	4	248	0.00	29.930 
15:55	29.7	29.7	29.7	74	22.4	2	5	248	0.00	29.930 
16:00	30.1	30.1	30.1	74	22.8	3	6	270	0.00	29.936 
16:05	30.4	30.4	30.4	73	22.8	2	5	248	0.00	29.936 
16:10	30.7	30.7	30.7	73	23.1	2	5	248	0.00	29.936 
16:15	30.6	30.6	30.6	72	22.7	2	5	248	0.00	29.935 
16:20	30.3	30.3	30.3	71	22.0	2	5	248	0.00	29.935 
16:25	30.1	30.1	30.1	72	22.2	2	6	270	0.00	29.935 
16:30	30.0	30.0	30.0	72	22.1	3	5	248	0.00	29.930 
16:35	29.8	29.8	29.8	72	21.9	2	6	248	0.00	29.930 
16:40	29.5	29.5	29.5	72	21.6	2	6	248	0.00	29.930 
16:45	29.4	29.4	29.4	72	21.5	2	6	248	0.00	29.935 
16:50	29.3	29.3	29.3	72	21.4	2	6	248	0.00	29.935 
16:55	29.1	29.1	29.1	72	21.2	2	5	248	0.00	29.935 
17:00	29.0	29.0	29.0	72	21.1	2	3	248	0.00	29.938 
17:05	28.7	28.7	28.7	72	20.8	2	4	248	0.00	29.938 
17:10	28.4	28.4	28.4	72	20.5	2	5	248	0.00	29.938 
17:15	28.1	28.1	28.1	73	20.6	2	4	248	0.00	29.951 
17:20	27.8	27.8	27.8	73	20.3	1	3	248	0.00	29.951 
17:25	27.6	27.6	27.6	73	20.1	2	4	248	0.00	29.951 
17:30	27.5	27.5	27.5	74	20.3	2	4	248	0.00	29.953 
17:35	27.2	27.2	27.2	74	20.0	1	4	248	0.00	29.953 
17:40	27.0	27.0	27.0	74	19.8	2	5	248	0.00	29.953 
17:45	26.9	26.9	26.9	74	19.7	1	4	248	0.00	29.957 
17:50	26.7	26.7	26.7	74	19.5	1	4	248	0.00	29.957 
17:55	26.4	26.4	26.4	74	19.3	1	2	248	0.00	29.957 
18:00	26.3	26.3	26.3	74	19.2	0	2	248	0.00	29.971 
18:05	26.1	26.1	26.1	75	19.3	1	3	248	0.00	29.971 
18:10	26.0	26.0	26.0	75	19.2	1	4	248	0.00	29.971 
18:15	25.8	25.8	25.8	75	19.0	0	2	248	0.00	29.974 
18:20	25.7	25.7	25.7	75	18.9	1	3	248	0.00	29.974 
18:25	25.6	25.6	25.6	75	18.8	1	3	248	0.00	29.974 
18:30	25.4	25.4	25.4	75	18.6	0	3	248	0.00	29.972 
18:35	25.4	25.4	25.4	75	18.6	1	4	248	0.00	29.972 
18:40	25.1	25.1	25.1	75	18.3	0	3	248	0.00	29.972 
18:45	25.0	25.0	25.0	76	18.5	0	2	248	0.00	29.974 
18:50	24.8	24.8	24.8	76	18.3	0	2	248	0.00	29.974 
18:55	24.7	24.7	24.7	76	18.2	0	1	248	0.00	29.974 
19:00	24.5	24.5	24.5	76	18.0	0	2	248	0.00	29.983 
19:05	24.4	24.4	24.4	77	18.2	0	1	248	0.00	29.983 
19:10	24.1	24.1	24.1	77	18.0	0	0	---	0.00	29.983 
19:15	23.9	23.9	23.9	77	17.8	0	1	248	0.00	29.989 
19:20	23.6	23.6	23.6	77	17.5	0	0	---	0.00	29.989 
19:25	23.3	23.3	23.3	77	17.2	0	0	---	0.00	29.989 
19:30	22.9	22.9	22.9	78	17.1	0	0	---	0.00	29.988 
19:35	22.5	22.5	22.5	77	16.4	0	0	---	0.00	29.988 
19:40	22.1	22.1	22.1	78	16.3	0	0	---	0.00	29.988 
19:45	21.8	21.8	21.8	79	16.3	0	2	248	0.00	29.980 
19:50	21.6	21.6	21.6	80	16.4	0	0	---	0.00	29.980 
19:55	21.4	21.4	21.4	81	16.5	0	0	---	0.00	29.980 
20:00	21.6	21.6	21.6	81	16.7	0	0	---	0.00	29.976 
20:05	21.8	21.8	21.8	82	17.2	0	2	248	0.00	29.976 
20:10	21.9	21.9	21.9	83	17.5	0	1	248	0.00	29.976 
20:15	22.2	22.2	22.2	83	17.8	0	3	248	0.00	29.974 
20:20	22.4	22.4	22.4	84	18.3	0	1	248	0.00	29.974 
20:25	22.5	22.5	22.5	84	18.4	0	0	---	0.00	29.974 
20:30	22.5	22.5	22.5	83	18.1	0	0	---	0.00	29.965 
20:35	22.5	22.5	22.5	83	18.1	0	0	---	0.00	29.965 
20:40	22.4	22.4	22.4	84	18.3	0	1	248	0.00	29.965 
20:45	22.5	22.5	22.5	84	18.4	0	1	248	0.00	29.962 
20:50	22.7	22.7	22.7	84	18.6	0	0	---	0.00	29.962 
20:55	22.7	22.7	22.7	84	18.6	0	0	---	0.00	29.962 
21:00	22.5	22.5	22.5	84	18.4	0	0	---	0.00	29.961 
21:05	22.4	22.4	22.4	84	18.3	0	0	---	0.00	29.961 
21:10	22.2	22.2	22.2	84	18.1	0	0	---	0.00	29.961 
21:15	21.9	21.9	21.9	84	17.8	0	0	---	0.00	29.959 
21:20	21.9	21.9	21.9	84	17.8	0	0	---	0.00	29.959 
21:25	22.1	22.1	22.1	84	18.0	0	1	248	0.00	29.959 
21:30	22.2	22.2	22.2	85	18.4	0	1	248	0.00	29.944 
21:35	22.5	22.5	22.5	85	18.7	0	1	248	0.00	29.944 
21:40	22.9	22.9	22.9	85	19.1	0	0	---	0.00	29.944 
21:45	23.0	23.0	23.0	85	19.2	0	1	248	0.00	29.943 
21:50	23.3	23.3	23.3	85	19.5	0	1	248	0.00	29.943 
21:55	23.5	23.5	23.5	85	19.7	0	2	248	0.00	29.943 
22:00	23.5	23.5	23.5	85	19.7	0	3	248	0.00	29.928 
22:05	23.6	23.6	23.6	85	19.8	0	1	248	0.00	29.928 
22:10	23.5	23.5	23.5	84	19.4	0	1	248	0.00	29.928 
22:15	23.5	23.5	23.5	84	19.4	0	1	248	0.00	29.924 
22:20	23.5	23.5	23.5	84	19.4	0	1	248	0.00	29.924 
22:25	23.5	23.5	23.5	84	19.4	0	2	248	0.00	29.924 
22:30	23.6	23.6	23.6	84	19.5	0	1	315	0.00	29.920 
22:35	23.6	23.6	23.6	84	19.5	0	2	315	0.00	29.920 
22:40	23.6	23.6	23.6	84	19.5	0	3	225	0.00	29.920 
22:45	23.8	23.8	23.8	84	19.7	0	1	225	0.00	29.920 
22:50	23.8	23.8	23.8	84	19.7	0	1	225	0.00	29.920 
22:55	23.8	23.8	23.8	83	19.4	0	4	90	0.00	29.920 
23:00	23.8	23.8	23.8	83	19.4	1	3	90	0.00	29.909 
23:05	23.8	23.8	23.8	83	19.4	0	1	90	0.00	29.909 
23:10	23.8	23.8	23.8	83	19.4	0	3	270	0.00	29.909 
23:15	23.8	23.8	23.8	83	19.4	0	2	270	0.00	29.911 
23:20	23.8	23.8	23.8	83	19.4	0	1	270	0.00	29.911 
23:25	23.9	23.9	23.9	83	19.5	0	2	270	0.00	29.911 
23:30	23.9	23.9	23.9	83	19.5	0	1	270	0.00	29.922 
23:35	23.9	23.9	23.9	83	19.5	0	1	270	0.00	29.922 
23:40	23.9	23.9	23.9	83	19.5	0	3	270	0.00	29.922 
23:45	23.9	23.9	23.9	82	19.2	1	5	112	0.00	29.907 
23:50	23.9	23.9	23.9	82	19.2	0	1	112	0.00	29.907 
23:55	23.9	23.9	23.9	83	19.5	0	2	112	0.00	29.907 

CoCoRaHS
IN-AL-39
A2 Web Hosting
Creative Commons License
GoDaddy
search engine by freefind advanced

loaded 2018-11-22 05:21:53 • last modified 2010-11-18 10:43:29
Privacy PolicyDisclaimer
• wx.awcolley.com is powered by PmWiki v.2002016 •
• all content (unless otherwise noted) © 2018 A W Colley